createdAt,value
2023-05-05T00:00:12.085Z,23.93
2023-05-05T00:01:12.039Z,23.92
2023-05-05T00:02:12.087Z,23.92
2023-05-05T00:03:12.096Z,23.92
2023-05-05T00:04:12.068Z,23.92
2023-05-05T00:05:12.080Z,23.91
2023-05-05T00:06:12.091Z,23.91
2023-05-05T00:07:12.324Z,23.90
2023-05-05T00:08:12.131Z,23.91
2023-05-05T00:09:12.103Z,23.90
2023-05-05T00:10:12.141Z,23.90
2023-05-05T00:11:12.113Z,23.89
2023-05-05T00:12:12.154Z,23.89
2023-05-05T00:13:12.190Z,23.89
2023-05-05T00:14:12.144Z,23.89
2023-05-05T00:15:12.192Z,23.88
2023-05-05T00:16:12.178Z,23.88
2023-05-05T00:17:12.321Z,23.88
2023-05-05T00:18:12.167Z,23.88
2023-05-05T00:19:12.202Z,23.88
2023-05-05T00:20:12.174Z,23.87
2023-05-05T00:21:12.228Z,23.88
2023-05-05T00:22:12.189Z,23.87
2023-05-05T00:23:12.215Z,23.87
2023-05-05T00:24:12.220Z,23.86
2023-05-05T00:25:12.203Z,23.86
2023-05-05T00:26:12.228Z,23.87
2023-05-05T00:27:12.265Z,23.86
2023-05-05T00:28:12.312Z,23.86
2023-05-05T00:29:12.318Z,23.86
2023-05-05T00:30:12.330Z,23.86
2023-05-05T00:31:12.354Z,23.86
2023-05-05T00:32:12.414Z,23.85
2023-05-05T00:33:12.362Z,23.85
2023-05-05T00:34:12.394Z,23.85
2023-05-05T00:35:12.434Z,23.85
2023-05-05T00:36:12.431Z,23.85
2023-05-05T00:37:12.443Z,23.84
2023-05-05T00:38:12.462Z,23.84
2023-05-05T00:39:12.501Z,23.84
2023-05-05T00:40:12.503Z,23.84
2023-05-05T00:41:12.468Z,23.83
2023-05-05T00:42:12.851Z,23.83
2023-05-05T00:43:12.475Z,23.83
2023-05-05T00:44:12.504Z,23.82
2023-05-05T00:45:12.536Z,23.83
2023-05-05T00:46:12.571Z,23.82
2023-05-05T00:47:12.861Z,23.82
2023-05-05T00:48:12.604Z,23.82
2023-05-05T00:49:12.613Z,23.81
2023-05-05T00:50:12.615Z,23.81
2023-05-05T00:51:12.615Z,23.81
2023-05-05T00:52:12.649Z,23.82
2023-05-05T00:53:12.693Z,23.81
2023-05-05T00:54:12.705Z,23.81
2023-05-05T00:55:12.752Z,23.80
2023-05-05T00:56:12.734Z,23.80
2023-05-05T00:57:12.723Z,23.80
2023-05-05T00:58:12.761Z,23.81
2023-05-05T00:59:12.773Z,23.80
2023-05-05T01:00:12.820Z,23.80
2023-05-05T01:01:12.798Z,23.80
2023-05-05T01:02:12.820Z,23.80
2023-05-05T01:03:12.919Z,23.80
2023-05-05T01:04:12.865Z,23.79
2023-05-05T01:05:12.900Z,23.79
2023-05-05T01:06:12.877Z,23.79
2023-05-05T01:07:12.919Z,23.78
2023-05-05T01:08:12.945Z,23.79
2023-05-05T01:09:12.930Z,23.78
2023-05-05T01:10:20.470Z,23.78
2023-05-05T01:11:13.973Z,23.77
2023-05-05T01:12:12.965Z,23.76
2023-05-05T01:13:13.084Z,23.77
2023-05-05T01:14:12.971Z,23.77
2023-05-05T01:15:12.956Z,23.76
2023-05-05T01:16:13.019Z,23.76
2023-05-05T01:17:12.947Z,23.76
2023-05-05T01:18:12.939Z,23.75
2023-05-05T01:19:12.912Z,23.75
2023-05-05T01:20:12.912Z,23.74
2023-05-05T01:21:12.882Z,23.74
2023-05-05T01:22:12.922Z,23.74
2023-05-05T01:23:12.873Z,23.74
2023-05-05T01:24:12.904Z,23.74
2023-05-05T01:25:12.883Z,23.74
2023-05-05T01:26:12.895Z,23.74
2023-05-05T01:27:12.862Z,23.74
2023-05-05T01:28:12.861Z,23.74
2023-05-05T01:29:12.825Z,23.73
2023-05-05T01:30:12.846Z,23.73
2023-05-05T01:31:12.844Z,23.73
2023-05-05T01:32:12.799Z,23.73
2023-05-05T01:33:12.809Z,23.72
2023-05-05T01:34:12.833Z,23.71
2023-05-05T01:35:12.851Z,23.72
2023-05-05T01:36:12.857Z,23.71
2023-05-05T01:37:12.866Z,23.71
2023-05-05T01:38:12.840Z,23.71
2023-05-05T01:39:12.898Z,23.71
2023-05-05T01:40:12.893Z,23.71
2023-05-05T01:41:12.973Z,23.72
2023-05-05T01:42:12.911Z,23.71
2023-05-05T01:43:12.921Z,23.71
2023-05-05T01:44:12.915Z,23.71
2023-05-05T01:45:12.949Z,23.71
2023-05-05T01:46:13.011Z,23.71
2023-05-05T01:47:12.973Z,23.71
2023-05-05T01:48:13.006Z,23.70
2023-05-05T01:49:12.986Z,23.70
2023-05-05T01:50:12.994Z,23.69
2023-05-05T01:51:13.010Z,23.70
2023-05-05T01:52:13.011Z,23.70
2023-05-05T01:53:13.012Z,23.69
2023-05-05T01:54:12.975Z,23.69
2023-05-05T01:55:13.008Z,23.68
2023-05-05T01:56:12.999Z,23.69
2023-05-05T01:57:13.000Z,23.69
2023-05-05T01:58:13.035Z,23.69
2023-05-05T01:59:13.012Z,23.68
2023-05-05T02:00:13.059Z,23.69
2023-05-05T02:01:13.107Z,23.68
2023-05-05T02:02:13.114Z,23.68
2023-05-05T02:03:13.199Z,23.68
2023-05-05T02:04:13.084Z,23.68
2023-05-05T02:05:13.108Z,23.68
2023-05-05T02:06:13.130Z,23.68
2023-05-05T02:07:13.119Z,23.67
2023-05-05T02:08:13.392Z,23.66
2023-05-05T02:09:13.167Z,23.67
2023-05-05T02:10:13.143Z,23.66
2023-05-05T02:11:13.148Z,23.66
2023-05-05T02:12:13.188Z,23.66
2023-05-05T02:13:13.396Z,23.66
2023-05-05T02:14:13.294Z,23.66
2023-05-05T02:15:13.219Z,23.65
2023-05-05T02:16:13.391Z,23.66
2023-05-05T02:17:13.268Z,23.65
2023-05-05T02:18:13.260Z,23.65
2023-05-05T02:19:13.224Z,23.65
2023-05-05T02:20:13.237Z,23.64
2023-05-05T02:21:13.246Z,23.64
2023-05-05T02:22:13.267Z,23.64
2023-05-05T02:23:13.265Z,23.64
2023-05-05T02:24:13.261Z,23.64
2023-05-05T02:25:13.284Z,23.64
2023-05-05T02:26:13.321Z,23.63
2023-05-05T02:27:13.303Z,23.63
2023-05-05T02:28:13.412Z,23.63
2023-05-05T02:29:13.334Z,23.63
2023-05-05T02:30:13.364Z,23.63
2023-05-05T02:31:13.418Z,23.63
2023-05-05T02:32:13.326Z,23.63
2023-05-05T02:33:13.360Z,23.62
2023-05-05T02:34:13.373Z,23.62
2023-05-05T02:35:13.387Z,23.62
2023-05-05T02:36:13.384Z,23.62
2023-05-05T02:37:13.360Z,23.62
2023-05-05T02:38:13.372Z,23.62
2023-05-05T02:39:13.420Z,23.62
2023-05-05T02:40:13.422Z,23.62
2023-05-05T02:41:13.437Z,23.62
2023-05-05T02:42:13.431Z,23.61
2023-05-05T02:43:13.485Z,23.62
2023-05-05T02:44:13.456Z,23.61
2023-05-05T02:45:13.481Z,23.61
2023-05-05T02:46:13.471Z,23.61
2023-05-05T02:47:13.469Z,23.61
2023-05-05T02:48:13.503Z,23.60
2023-05-05T02:49:13.467Z,23.60
2023-05-05T02:50:13.504Z,23.61
2023-05-05T02:51:13.555Z,23.60
2023-05-05T02:52:13.532Z,23.59
2023-05-05T02:53:13.549Z,23.59
2023-05-05T02:54:13.535Z,23.59
2023-05-05T02:55:13.566Z,23.59
2023-05-05T02:56:13.586Z,23.59
2023-05-05T02:57:13.599Z,23.59
2023-05-05T02:58:13.639Z,23.58
2023-05-05T02:59:15.966Z,23.58
2023-05-05T03:00:13.646Z,23.59
2023-05-05T03:01:13.659Z,23.57
2023-05-05T03:02:13.593Z,23.57
2023-05-05T03:03:13.660Z,23.57
2023-05-05T03:04:13.589Z,23.57
2023-05-05T03:05:13.560Z,23.56
2023-05-05T03:06:13.609Z,23.57
2023-05-05T03:07:13.607Z,23.57
2023-05-05T03:08:13.548Z,23.57
2023-05-05T03:09:13.549Z,23.56
2023-05-05T03:10:13.559Z,23.56
2023-05-05T03:11:13.560Z,23.56
2023-05-05T03:12:13.559Z,23.56
2023-05-05T03:13:13.649Z,23.56
2023-05-05T03:14:13.545Z,23.56
2023-05-05T03:15:13.533Z,23.56
2023-05-05T03:16:13.501Z,23.55
2023-05-05T03:17:13.532Z,23.55
2023-05-05T03:18:13.509Z,23.56
2023-05-05T03:19:13.484Z,23.56
2023-05-05T03:20:13.484Z,23.55
2023-05-05T03:21:13.499Z,23.55
2023-05-05T03:22:13.503Z,23.55
2023-05-05T03:23:13.484Z,23.55
2023-05-05T03:24:13.450Z,23.55
2023-05-05T03:25:13.430Z,23.55
2023-05-05T03:26:13.449Z,23.54
2023-05-05T03:27:13.429Z,23.54
2023-05-05T03:28:13.441Z,23.54
2023-05-05T03:29:13.403Z,23.54
2023-05-05T03:30:13.395Z,23.54
2023-05-05T03:31:13.400Z,23.53
2023-05-05T03:32:13.429Z,23.54
2023-05-05T03:33:13.392Z,23.53
2023-05-05T03:34:13.382Z,23.53
2023-05-05T03:35:13.412Z,23.52
2023-05-05T03:36:13.401Z,23.52
2023-05-05T03:37:13.428Z,23.52
2023-05-05T03:38:13.376Z,23.52
2023-05-05T03:39:13.366Z,23.52
2023-05-05T03:40:13.361Z,23.51
2023-05-05T03:41:13.375Z,23.51
2023-05-05T03:42:13.338Z,23.51
2023-05-05T03:43:13.333Z,23.51
2023-05-05T03:44:13.325Z,23.52
2023-05-05T03:45:13.313Z,23.51
2023-05-05T03:46:13.315Z,23.52
2023-05-05T03:47:13.277Z,23.51
2023-05-05T03:48:13.267Z,23.51
2023-05-05T03:49:13.294Z,23.51
2023-05-05T03:50:13.282Z,23.51
2023-05-05T03:51:13.278Z,23.50
2023-05-05T03:52:14.977Z,23.51
2023-05-05T03:53:13.258Z,23.50
2023-05-05T03:54:13.251Z,23.51
2023-05-05T03:55:13.236Z,23.50
2023-05-05T03:56:13.225Z,23.49
2023-05-05T03:57:13.236Z,23.50
2023-05-05T03:58:13.243Z,23.50
2023-05-05T03:59:13.230Z,23.49
2023-05-05T04:00:13.213Z,23.49
2023-05-05T04:01:13.194Z,23.49
2023-05-05T04:02:13.203Z,23.49
2023-05-05T04:03:13.359Z,23.49
2023-05-05T04:04:13.259Z,23.49
2023-05-05T04:05:13.180Z,23.48
2023-05-05T04:06:13.156Z,23.49
2023-05-05T04:07:13.229Z,23.48
2023-05-05T04:08:13.450Z,23.49
2023-05-05T04:09:13.133Z,23.49
2023-05-05T04:10:13.162Z,23.48
2023-05-05T04:11:13.161Z,23.49
2023-05-05T04:12:13.143Z,23.49
2023-05-05T04:13:13.217Z,23.49
2023-05-05T04:14:13.126Z,23.49
2023-05-05T04:15:13.116Z,23.48
2023-05-05T04:16:13.151Z,23.49
2023-05-05T04:17:13.105Z,23.49
2023-05-05T04:18:13.869Z,23.49
2023-05-05T04:19:13.106Z,23.49
2023-05-05T04:20:13.102Z,23.48
2023-05-05T04:21:13.107Z,23.48
2023-05-05T04:22:13.059Z,23.48
2023-05-05T04:23:13.457Z,23.48
2023-05-05T04:24:13.073Z,23.48
2023-05-05T04:25:13.073Z,23.48
2023-05-05T04:26:13.051Z,23.48
2023-05-05T04:27:13.071Z,23.49
2023-05-05T04:28:13.074Z,23.49
2023-05-05T04:29:13.106Z,23.48
2023-05-05T04:30:13.182Z,23.48
2023-05-05T04:31:13.158Z,23.49
2023-05-05T04:32:13.117Z,23.49
2023-05-05T04:33:13.150Z,23.49
2023-05-05T04:34:13.112Z,23.49
2023-05-05T04:35:13.216Z,23.49
2023-05-05T04:36:13.141Z,23.49
2023-05-05T04:37:13.188Z,23.49
2023-05-05T04:38:13.230Z,23.49
2023-05-05T04:39:13.234Z,23.49
2023-05-05T04:40:13.249Z,23.49
2023-05-05T04:41:13.209Z,23.49
2023-05-05T04:42:13.240Z,23.48
2023-05-05T04:43:13.264Z,23.49
2023-05-05T04:44:13.279Z,23.49
2023-05-05T04:45:13.244Z,23.49
2023-05-05T04:46:13.272Z,23.50
2023-05-05T04:47:14.656Z,23.49
2023-05-05T04:48:13.317Z,23.49
2023-05-05T04:49:13.344Z,23.49
2023-05-05T04:50:13.375Z,23.48
2023-05-05T04:51:13.344Z,23.48
2023-05-05T04:52:13.379Z,23.48
2023-05-05T04:53:13.399Z,23.49
2023-05-05T04:54:13.407Z,23.49
2023-05-05T04:55:13.456Z,23.48
2023-05-05T04:56:13.494Z,23.48
2023-05-05T04:57:13.491Z,23.48
2023-05-05T04:58:13.535Z,23.49
2023-05-05T04:59:13.540Z,23.48
2023-05-05T05:00:13.569Z,23.48
2023-05-05T05:01:13.553Z,23.48
2023-05-05T05:02:13.677Z,23.48
2023-05-05T05:03:13.620Z,23.48
2023-05-05T05:04:13.578Z,23.48
2023-05-05T05:05:13.615Z,23.48
2023-05-05T05:06:13.632Z,23.48
2023-05-05T05:07:13.638Z,23.48
2023-05-05T05:08:13.640Z,23.48
2023-05-05T05:09:13.645Z,23.48
2023-05-05T05:10:13.657Z,23.47
2023-05-05T05:11:13.668Z,23.48
2023-05-05T05:12:13.690Z,23.48
2023-05-05T05:13:13.800Z,23.48
2023-05-05T05:14:13.721Z,23.47
2023-05-05T05:15:13.762Z,23.46
2023-05-05T05:16:13.807Z,23.47
2023-05-05T05:17:13.770Z,23.47
2023-05-05T05:18:13.820Z,23.46
2023-05-05T05:19:13.772Z,23.47
2023-05-05T05:20:13.776Z,23.47
2023-05-05T05:21:13.849Z,23.47
2023-05-05T05:22:13.833Z,23.47
2023-05-05T05:23:13.858Z,23.47
2023-05-05T05:24:13.838Z,23.46
2023-05-05T05:25:13.876Z,23.46
2023-05-05T05:26:13.880Z,23.46
2023-05-05T05:27:13.887Z,23.46
2023-05-05T05:28:13.894Z,23.46
2023-05-05T05:29:13.925Z,23.46
2023-05-05T05:30:13.937Z,23.46
2023-05-05T05:31:13.983Z,23.47
2023-05-05T05:32:13.996Z,23.47
2023-05-05T05:33:13.984Z,23.48
2023-05-05T05:34:14.024Z,23.48
2023-05-05T05:35:14.031Z,23.48
2023-05-05T05:36:14.004Z,23.49
2023-05-05T05:37:14.041Z,23.49
2023-05-05T05:38:14.470Z,23.50
2023-05-05T05:39:14.069Z,23.50
2023-05-05T05:40:14.028Z,23.50
2023-05-05T05:41:14.068Z,23.50
2023-05-05T05:42:14.086Z,23.51
2023-05-05T05:43:14.089Z,23.51
2023-05-05T05:44:14.098Z,23.51
2023-05-05T05:45:14.130Z,23.51
2023-05-05T05:46:14.256Z,23.52
2023-05-05T05:47:14.165Z,23.53
2023-05-05T05:48:14.175Z,23.52
2023-05-05T05:49:14.312Z,23.53
2023-05-05T05:50:14.177Z,23.54
2023-05-05T05:51:14.145Z,23.53
2023-05-05T05:52:14.149Z,23.53
2023-05-05T05:53:14.177Z,23.54
2023-05-05T05:54:14.168Z,23.54
2023-05-05T05:55:14.184Z,23.55
2023-05-05T05:56:14.987Z,23.55
2023-05-05T05:57:14.191Z,23.55
2023-05-05T05:58:14.505Z,23.55
2023-05-05T05:59:14.194Z,23.56
2023-05-05T06:00:14.207Z,23.56
2023-05-05T06:01:14.217Z,23.57
2023-05-05T06:02:14.351Z,23.57
2023-05-05T06:03:14.814Z,23.57
2023-05-05T06:04:14.250Z,23.61
2023-05-05T06:05:14.242Z,23.62
2023-05-05T06:06:14.261Z,23.65
2023-05-05T06:07:14.249Z,23.67
2023-05-05T06:08:14.312Z,23.69
2023-05-05T06:09:14.589Z,23.72
2023-05-05T06:10:26.590Z,23.76
2023-05-05T06:11:15.384Z,23.80
2023-05-05T06:12:14.388Z,23.83
2023-05-05T06:13:14.381Z,23.87
2023-05-05T06:14:14.505Z,23.91
2023-05-05T06:15:14.342Z,23.93
2023-05-05T06:16:14.329Z,23.97
2023-05-05T06:17:14.316Z,24.00
2023-05-05T06:18:14.360Z,24.02
2023-05-05T06:19:14.511Z,24.04
2023-05-05T06:20:14.325Z,23.98
2023-05-05T06:21:14.375Z,23.99
2023-05-05T06:22:14.413Z,24.02
2023-05-05T06:23:14.482Z,24.06
2023-05-05T06:24:14.551Z,24.08
2023-05-05T06:25:14.588Z,24.10
2023-05-05T06:26:14.631Z,24.11
2023-05-05T06:27:14.665Z,24.15
2023-05-05T06:28:14.717Z,24.17
2023-05-05T06:29:14.737Z,24.21
2023-05-05T06:30:14.827Z,24.25
2023-05-05T06:31:14.892Z,24.26
2023-05-05T06:32:14.894Z,24.28
2023-05-05T06:33:14.957Z,24.28
2023-05-05T06:34:15.005Z,24.30
2023-05-05T06:35:15.009Z,24.32
2023-05-05T06:36:15.060Z,24.34
2023-05-05T06:37:15.061Z,24.36
2023-05-05T06:38:15.139Z,24.37
2023-05-05T06:39:16.226Z,24.38
2023-05-05T06:40:15.164Z,24.40
2023-05-05T06:41:15.225Z,24.41
2023-05-05T06:42:15.220Z,24.36
2023-05-05T06:43:15.259Z,24.33
2023-05-05T06:44:15.313Z,24.35
2023-05-05T06:45:15.353Z,24.37
2023-05-05T06:46:15.411Z,24.39
2023-05-05T06:47:15.399Z,24.42
2023-05-05T06:48:15.437Z,24.45
2023-05-05T06:49:15.449Z,24.46
2023-05-05T06:50:15.492Z,24.18
2023-05-05T06:51:15.561Z,24.22
2023-05-05T06:52:15.546Z,24.27
2023-05-05T06:53:15.562Z,24.32
2023-05-05T06:54:15.647Z,23.52
2023-05-05T06:55:15.675Z,23.57
2023-05-05T06:56:15.720Z,23.68
2023-05-05T06:57:15.763Z,23.80
2023-05-05T06:58:15.839Z,23.91
2023-05-05T06:59:15.926Z,24.02
2023-05-05T07:00:15.918Z,24.10
2023-05-05T07:01:15.962Z,24.18
2023-05-05T07:02:15.996Z,24.26
2023-05-05T07:03:16.289Z,24.34
2023-05-05T07:04:16.180Z,24.39
2023-05-05T07:05:16.072Z,24.46
2023-05-05T07:06:16.083Z,24.51
2023-05-05T07:07:16.114Z,24.56
2023-05-05T07:08:16.108Z,24.60
2023-05-05T07:09:17.221Z,24.62
2023-05-05T07:10:16.145Z,24.64
2023-05-05T07:11:16.145Z,24.68
2023-05-05T07:12:16.158Z,24.73
2023-05-05T07:13:16.228Z,24.73
2023-05-05T07:14:16.171Z,24.74
2023-05-05T07:15:27.450Z,24.77
2023-05-05T07:16:17.196Z,24.79
2023-05-05T07:17:16.159Z,24.81
2023-05-05T07:18:16.165Z,24.81
2023-05-05T07:19:16.279Z,24.84
2023-05-05T07:20:16.154Z,24.88
2023-05-05T07:21:16.156Z,24.90
2023-05-05T07:22:16.139Z,24.92
2023-05-05T07:23:16.214Z,24.94
2023-05-05T07:24:16.115Z,24.95
2023-05-05T07:25:16.117Z,24.98
2023-05-05T07:26:16.091Z,25.00
2023-05-05T07:27:16.096Z,25.03
2023-05-05T07:28:16.088Z,25.05
2023-05-05T07:29:16.077Z,24.98
2023-05-05T07:30:18.419Z,24.95
2023-05-05T07:31:16.189Z,24.96
2023-05-05T07:32:16.180Z,24.97
2023-05-05T07:33:16.203Z,24.99
2023-05-05T07:34:16.230Z,25.02
2023-05-05T07:35:16.359Z,25.01
2023-05-05T07:36:16.298Z,25.00
2023-05-05T07:37:16.357Z,25.03
2023-05-05T07:38:16.396Z,25.08
2023-05-05T07:39:16.446Z,25.12
2023-05-05T07:40:16.503Z,25.14
2023-05-05T07:41:16.561Z,25.03
2023-05-05T07:42:16.620Z,25.03
2023-05-05T07:43:16.688Z,25.03
2023-05-05T07:44:16.737Z,25.07
2023-05-05T07:45:16.798Z,25.09
2023-05-05T07:46:16.886Z,25.14
2023-05-05T07:47:16.907Z,25.18
2023-05-05T07:48:16.968Z,25.21
2023-05-05T07:49:17.024Z,25.25
2023-05-05T07:50:17.094Z,25.28
2023-05-05T07:51:17.179Z,25.31
2023-05-05T07:52:17.198Z,25.34
2023-05-05T07:53:17.212Z,25.37
2023-05-05T07:54:17.259Z,25.39
2023-05-05T07:55:17.328Z,25.40
2023-05-05T07:56:17.388Z,25.42
2023-05-05T07:57:17.394Z,25.44
2023-05-05T07:58:17.467Z,25.45
2023-05-05T07:59:17.511Z,25.46
2023-05-05T08:00:17.549Z,25.47
2023-05-05T08:01:17.590Z,25.49
2023-05-05T08:02:17.653Z,25.51
2023-05-05T08:03:17.706Z,25.56
2023-05-05T08:04:18.097Z,25.58
2023-05-05T08:05:17.747Z,25.59
2023-05-05T08:06:17.798Z,25.63
2023-05-05T08:07:17.939Z,25.65
2023-05-05T08:08:17.842Z,25.66
2023-05-05T08:09:17.892Z,25.68
2023-05-05T08:10:17.891Z,25.69
2023-05-05T08:11:17.929Z,25.70
2023-05-05T08:12:17.967Z,25.72
2023-05-05T08:13:18.087Z,25.75
2023-05-05T08:14:18.056Z,25.76
2023-05-05T08:15:18.036Z,25.79
2023-05-05T08:16:18.098Z,25.80
2023-05-05T08:17:18.087Z,25.82
2023-05-05T08:18:18.151Z,25.82
2023-05-05T08:19:28.288Z,25.82
2023-05-05T08:20:19.119Z,25.82
2023-05-05T08:21:18.117Z,25.83
2023-05-05T08:22:18.123Z,25.83
2023-05-05T08:23:18.234Z,25.83
2023-05-05T08:24:18.559Z,25.85
2023-05-05T08:25:18.098Z,25.84
2023-05-05T08:26:18.119Z,25.85
2023-05-05T08:27:18.090Z,25.85
2023-05-05T08:28:18.091Z,25.86
2023-05-05T08:29:18.583Z,25.85
2023-05-05T08:30:18.085Z,25.86
2023-05-05T08:31:18.089Z,25.86
2023-05-05T08:32:18.051Z,25.87
2023-05-05T08:33:18.143Z,25.87
2023-05-05T08:34:18.043Z,25.88
2023-05-05T08:35:18.095Z,25.87
2023-05-05T08:36:18.047Z,25.87
2023-05-05T08:37:18.014Z,25.87
2023-05-05T08:38:17.988Z,25.87
2023-05-05T08:39:18.304Z,25.87
2023-05-05T08:40:18.110Z,25.88
2023-05-05T08:41:18.087Z,25.89
2023-05-05T08:42:29.301Z,25.89
2023-05-05T08:43:19.096Z,25.90
2023-05-05T08:44:18.109Z,25.91
2023-05-05T08:45:18.077Z,25.92
2023-05-05T08:46:18.192Z,25.94
2023-05-05T08:47:18.067Z,25.94
2023-05-05T08:48:18.031Z,25.95
2023-05-05T08:49:18.069Z,25.97
2023-05-05T08:50:18.084Z,25.98
2023-05-05T08:51:18.033Z,26.01
2023-05-05T08:52:18.121Z,26.02
2023-05-05T08:53:18.039Z,26.03
2023-05-05T08:54:18.109Z,26.05
2023-05-05T08:55:18.078Z,26.06
2023-05-05T08:56:17.973Z,26.08
2023-05-05T08:57:17.998Z,26.10
2023-05-05T08:58:18.020Z,26.11
2023-05-05T08:59:17.971Z,26.12
2023-05-05T09:00:17.964Z,26.12
2023-05-05T09:01:18.017Z,26.13
2023-05-05T09:02:18.007Z,26.14
2023-05-05T09:03:18.032Z,26.15
2023-05-05T09:04:17.976Z,26.15
2023-05-05T09:05:17.962Z,26.16
2023-05-05T09:06:17.990Z,26.16
2023-05-05T09:07:18.094Z,26.17
2023-05-05T09:08:18.133Z,26.17
2023-05-05T09:09:18.140Z,26.18
2023-05-05T09:10:18.128Z,26.20
2023-05-05T09:11:18.268Z,26.20
2023-05-05T09:12:18.165Z,26.21
2023-05-05T09:13:18.245Z,26.22
2023-05-05T09:14:18.188Z,26.22
2023-05-05T09:15:18.178Z,26.22
2023-05-05T09:16:18.215Z,26.23
2023-05-05T09:17:18.176Z,26.23
2023-05-05T09:18:18.242Z,26.26
2023-05-05T09:19:18.582Z,26.27
2023-05-05T09:20:18.206Z,26.28
2023-05-05T09:21:18.233Z,26.30
2023-05-05T09:22:18.220Z,26.31
2023-05-05T09:23:18.244Z,26.31
2023-05-05T09:24:18.248Z,26.34
2023-05-05T09:25:18.237Z,26.34
2023-05-05T09:26:18.225Z,26.34
2023-05-05T09:27:18.302Z,26.35
2023-05-05T09:28:18.258Z,26.36
2023-05-05T09:29:18.222Z,26.38
2023-05-05T09:30:18.265Z,26.38
2023-05-05T09:31:18.271Z,26.38
2023-05-05T09:32:18.230Z,26.40
2023-05-05T09:33:18.270Z,26.41
2023-05-05T09:34:18.263Z,26.42
2023-05-05T09:35:18.306Z,26.42
2023-05-05T09:36:18.308Z,26.44
2023-05-05T09:37:18.310Z,26.44
2023-05-05T09:38:18.327Z,26.44
2023-05-05T09:39:18.600Z,26.45
2023-05-05T09:40:18.385Z,26.45
2023-05-05T09:41:18.364Z,26.46
2023-05-05T09:42:18.410Z,26.47
2023-05-05T09:43:18.474Z,26.48
2023-05-05T09:44:18.412Z,26.48
2023-05-05T09:45:18.622Z,26.48
2023-05-05T09:46:18.516Z,26.49
2023-05-05T09:47:28.945Z,26.50
2023-05-05T09:48:19.458Z,26.51
2023-05-05T09:49:18.445Z,26.51
2023-05-05T09:50:18.831Z,26.51
2023-05-05T09:51:18.404Z,26.51
2023-05-05T09:52:18.411Z,26.52
2023-05-05T09:53:18.391Z,26.51
2023-05-05T09:54:19.505Z,26.53
2023-05-05T09:55:18.423Z,26.53
2023-05-05T09:56:18.376Z,26.53
2023-05-05T09:57:18.416Z,26.53
2023-05-05T09:58:18.537Z,26.55
2023-05-05T09:59:18.588Z,26.55
2023-05-05T10:00:18.583Z,26.55
2023-05-05T10:01:18.616Z,26.54
2023-05-05T10:02:18.648Z,26.54
2023-05-05T10:03:18.694Z,26.54
2023-05-05T10:04:18.748Z,26.54
2023-05-05T10:05:18.927Z,26.54
2023-05-05T10:06:18.820Z,26.55
2023-05-05T10:07:18.845Z,26.55
2023-05-05T10:08:18.909Z,26.55
2023-05-05T10:09:18.967Z,26.56
2023-05-05T10:10:18.992Z,26.57
2023-05-05T10:11:19.025Z,26.56
2023-05-05T10:12:19.065Z,26.58
2023-05-05T10:13:19.170Z,26.57
2023-05-05T10:14:19.180Z,26.58
2023-05-05T10:15:19.314Z,26.58
2023-05-05T10:16:19.288Z,26.58
2023-05-05T10:17:19.359Z,26.58
2023-05-05T10:18:19.412Z,26.58
2023-05-05T10:19:19.589Z,26.58
2023-05-05T10:20:19.507Z,26.58
2023-05-05T10:21:19.550Z,26.59
2023-05-05T10:22:19.615Z,26.59
2023-05-05T10:23:19.662Z,26.60
2023-05-05T10:24:19.678Z,26.61
2023-05-05T10:25:19.784Z,26.61
2023-05-05T10:26:19.857Z,26.62
2023-05-05T10:27:19.908Z,26.62
2023-05-05T10:28:19.927Z,26.63
2023-05-05T10:29:20.009Z,26.64
2023-05-05T10:30:20.058Z,26.64
2023-05-05T10:31:25.030Z,26.65
2023-05-05T10:32:46.517Z,26.64
2023-05-05T10:34:20.086Z,26.65
2023-05-05T10:35:20.083Z,26.65
2023-05-05T10:36:20.074Z,26.65
2023-05-05T10:37:20.089Z,26.65
2023-05-05T10:38:20.060Z,26.65
2023-05-05T10:39:20.065Z,26.65
2023-05-05T10:40:20.148Z,26.64
2023-05-05T10:41:20.071Z,26.65
2023-05-05T10:42:20.036Z,26.65
2023-05-05T10:43:20.024Z,26.65
2023-05-05T10:44:20.016Z,26.65
2023-05-05T10:45:20.124Z,26.64
2023-05-05T10:46:20.047Z,26.63
2023-05-05T10:47:20.065Z,26.64
2023-05-05T10:48:20.017Z,26.64
2023-05-05T10:49:19.969Z,26.63
2023-05-05T10:50:20.159Z,26.62
2023-05-05T10:51:30.937Z,26.62
2023-05-05T10:52:20.970Z,26.60
2023-05-05T10:53:19.973Z,26.60
2023-05-05T10:54:19.980Z,26.60
2023-05-05T10:55:20.132Z,26.60
2023-05-05T10:56:19.998Z,26.60
2023-05-05T10:57:19.946Z,26.59
2023-05-05T10:58:19.903Z,26.61
2023-05-05T10:59:19.922Z,26.61
2023-05-05T11:00:20.115Z,26.61
2023-05-05T11:01:19.893Z,26.60
2023-05-05T11:02:19.929Z,26.62
2023-05-05T11:03:20.007Z,26.60
2023-05-05T11:04:19.891Z,26.57
2023-05-05T11:05:20.138Z,26.57
2023-05-05T11:06:19.875Z,26.57
2023-05-05T11:07:19.866Z,26.57
2023-05-05T11:08:19.829Z,26.56
2023-05-05T11:09:19.883Z,26.55
2023-05-05T11:10:20.111Z,26.55
2023-05-05T11:11:19.850Z,26.55
2023-05-05T11:12:19.847Z,26.55
2023-05-05T11:13:19.997Z,26.54
2023-05-05T11:14:19.858Z,26.54
2023-05-05T11:15:20.136Z,26.55
2023-05-05T11:16:19.934Z,26.54
2023-05-05T11:17:19.904Z,26.53
2023-05-05T11:18:19.884Z,26.53
2023-05-05T11:19:20.097Z,26.53
2023-05-05T11:20:20.124Z,26.52
2023-05-05T11:21:19.914Z,26.51
2023-05-05T11:22:19.896Z,26.50
2023-05-05T11:23:19.892Z,26.49
2023-05-05T11:24:19.916Z,26.50
2023-05-05T11:25:20.130Z,26.50
2023-05-05T11:26:19.893Z,26.48
2023-05-05T11:27:19.899Z,26.48
2023-05-05T11:28:19.917Z,26.48
2023-05-05T11:29:19.920Z,26.47
2023-05-05T11:30:19.919Z,26.46
2023-05-05T11:31:20.084Z,26.48
2023-05-05T11:32:19.946Z,26.48
2023-05-05T11:33:19.898Z,26.47
2023-05-05T11:34:19.898Z,26.46
2023-05-05T11:35:20.257Z,26.46
2023-05-05T11:36:19.932Z,26.45
2023-05-05T11:37:19.921Z,26.44
2023-05-05T11:38:19.919Z,26.42
2023-05-05T11:39:19.937Z,26.42
2023-05-05T11:40:19.997Z,26.41
2023-05-05T11:41:19.980Z,26.40
2023-05-05T11:42:19.978Z,26.38
2023-05-05T11:43:20.020Z,26.37
2023-05-05T11:44:20.064Z,26.36
2023-05-05T11:45:20.126Z,26.34
2023-05-05T11:46:20.181Z,26.32
2023-05-05T11:47:20.120Z,26.31
2023-05-05T11:48:20.214Z,26.30
2023-05-05T11:49:20.159Z,26.29
2023-05-05T11:50:20.170Z,26.28
2023-05-05T11:51:20.325Z,26.27
2023-05-05T11:52:20.210Z,26.26
2023-05-05T11:53:20.231Z,26.26
2023-05-05T11:54:20.273Z,26.25
2023-05-05T11:55:20.326Z,26.24
2023-05-05T11:56:20.311Z,26.24
2023-05-05T11:57:20.330Z,26.22
2023-05-05T11:58:20.324Z,26.22
2023-05-05T11:59:20.407Z,26.22
2023-05-05T12:00:20.453Z,26.20
2023-05-05T12:01:20.423Z,26.20
2023-05-05T12:02:20.434Z,26.19
2023-05-05T12:03:20.528Z,26.18
2023-05-05T12:04:20.531Z,26.17
2023-05-05T12:05:20.687Z,26.18
2023-05-05T12:06:20.507Z,26.17
2023-05-05T12:07:20.580Z,26.17
2023-05-05T12:08:20.601Z,26.16
2023-05-05T12:09:20.616Z,26.16
2023-05-05T12:10:20.658Z,26.15
2023-05-05T12:11:20.626Z,26.14
2023-05-05T12:12:20.739Z,26.15
2023-05-05T12:13:20.752Z,26.14
2023-05-05T12:14:20.685Z,26.14
2023-05-05T12:15:21.174Z,26.13
2023-05-05T12:16:20.777Z,26.12
2023-05-05T12:17:20.776Z,26.11
2023-05-05T12:18:20.809Z,26.12
2023-05-05T12:19:20.812Z,26.09
2023-05-05T12:20:20.857Z,26.09
2023-05-05T12:21:20.844Z,26.09
2023-05-05T12:22:20.895Z,26.07
2023-05-05T12:23:20.976Z,26.08
2023-05-05T12:24:20.918Z,26.06
2023-05-05T12:25:20.936Z,26.06
2023-05-05T12:26:20.984Z,26.06
2023-05-05T12:27:20.976Z,26.06
2023-05-05T12:28:21.002Z,26.05
2023-05-05T12:29:21.025Z,26.05
2023-05-05T12:30:21.197Z,26.06
2023-05-05T12:31:21.151Z,26.05
2023-05-05T12:32:21.162Z,26.05
2023-05-05T12:33:21.106Z,26.05
2023-05-05T12:34:21.161Z,26.04
2023-05-05T12:35:21.716Z,26.04
2023-05-05T12:36:21.186Z,26.03
2023-05-05T12:37:21.207Z,26.03
2023-05-05T12:38:21.251Z,26.04
2023-05-05T12:39:21.314Z,26.03
2023-05-05T12:40:21.666Z,26.03
2023-05-05T12:41:21.285Z,26.03
2023-05-05T12:42:21.314Z,26.02
2023-05-05T12:43:21.329Z,26.02
2023-05-05T12:44:21.378Z,26.02
2023-05-05T12:45:21.694Z,26.02
2023-05-05T12:46:21.413Z,26.02
2023-05-05T12:47:21.417Z,26.02
2023-05-05T12:48:21.448Z,26.03
2023-05-05T12:49:21.448Z,26.03
2023-05-05T12:50:21.496Z,26.04
2023-05-05T12:51:21.530Z,26.03
2023-05-05T12:52:21.537Z,26.04
2023-05-05T12:53:21.541Z,26.05